Time;durP1;ratioP1;P1;durP2;ratioP2;P2;SDS_P1;SDS_P2;PMS_P1;PMS_P2;Temp;Humidity;BMP_temperature;BMP_pressure;BME280_temperature;BME280_humidity;BME280_pressure;Samples;Min_cycle;Max_cycle;Signal;HPM_P1;HPM_P2
2020/12/08 00:02:13;;;;;;;8.75;4.90;;;;;;;;;;5069716;28;20052;-59
2020/12/08 00:04:40;;;;;;;7.50;4.70;;;;;;;;;;5070339;28;20040;-60
2020/12/08 00:07:06;;;;;;;8.75;5.07;;;;;;;;;;5068991;28;20063;-59
2020/12/08 00:09:33;;;;;;;7.75;4.75;;;;;;;;;;5069494;28;20036;-59
2020/12/08 00:11:59;;;;;;;7.38;4.45;;;;;;;;;;5076044;28;20456;-59
2020/12/08 00:14:25;;;;;;;8.07;4.82;;;;;;;;;;5061318;28;20028;-59
2020/12/08 00:16:51;;;;;;;7.20;4.68;;;;;;;;;;5072309;28;20116;-60
2020/12/08 00:19:17;;;;;;;7.20;4.43;;;;;;;;;;5071229;28;20029;-59
2020/12/08 00:21:43;;;;;;;15.20;5.20;;;;;;;;;;5072737;28;20052;-59
2020/12/08 00:24:09;;;;;;;7.03;4.38;;;;;;;;;;5068162;28;20084;-59
2020/12/08 00:26:36;;;;;;;7.80;4.70;;;;;;;;;;5076419;28;20111;-59
2020/12/08 00:29:02;;;;;;;6.75;4.45;;;;;;;;;;5066627;28;20112;-60
2020/12/08 00:31:29;;;;;;;7.63;4.35;;;;;;;;;;5070245;28;20028;-59
2020/12/08 00:33:55;;;;;;;9.43;4.45;;;;;;;;;;5068958;28;20398;-58
2020/12/08 00:36:22;;;;;;;6.20;4.38;;;;;;;;;;5071577;28;20530;-60
2020/12/08 00:38:48;;;;;;;6.57;4.63;;;;;;;;;;5065573;28;20029;-59
2020/12/08 00:41:15;;;;;;;7.28;4.38;;;;;;;;;;5062474;28;20024;-60
2020/12/08 00:43:41;;;;;;;6.78;4.30;;;;;;;;;;5072145;28;20033;-60
2020/12/08 00:46:06;;;;;;;7.78;4.50;;;;;;;;;;5070790;28;20028;-60
2020/12/08 00:48:32;;;;;;;9.68;4.95;;;;;;;;;;5074419;28;20059;-60
2020/12/08 00:50:58;;;;;;;9.10;4.38;;;;;;;;;;5066841;28;20028;-59
2020/12/08 00:53:24;;;;;;;6.90;4.30;;;;;;;;;;5065208;28;20082;-60
2020/12/08 00:55:50;;;;;;;6.45;4.85;;;;;;;;;;5070898;28;20028;-58
2020/12/08 00:58:16;;;;;;;6.47;4.20;;;;;;;;;;5076213;28;20373;-60
2020/12/08 01:00:42;;;;;;;8.88;4.80;;;;;;;;;;5071188;28;20453;-60
2020/12/08 01:03:08;;;;;;;8.23;4.70;;;;;;;;;;5061815;28;20043;-59
2020/12/08 01:05:34;;;;;;;7.90;5.28;;;;;;;;;;5065670;28;20025;-60
2020/12/08 01:08:00;;;;;;;6.72;4.53;;;;;;;;;;5063153;28;20017;-59
2020/12/08 01:10:26;;;;;;;8.40;4.93;;;;;;;;;;5067834;28;20051;-59
2020/12/08 01:12:52;;;;;;;8.15;4.80;;;;;;;;;;5072642;28;20017;-60
2020/12/08 01:15:18;;;;;;;8.25;4.38;;;;;;;;;;5074526;28;20134;-59
2020/12/08 01:17:44;;;;;;;6.45;4.38;;;;;;;;;;5067490;28;20070;-59
2020/12/08 01:20:10;;;;;;;7.93;4.68;;;;;;;;;;5062049;28;20027;-60
2020/12/08 01:22:36;;;;;;;8.20;5.25;;;;;;;;;;5068282;28;20024;-59
2020/12/08 01:25:01;;;;;;;7.85;4.72;;;;;;;;;;5060890;28;20070;-59
2020/12/08 01:27:27;;;;;;;6.75;4.22;;;;;;;;;;5059140;28;20031;-60
2020/12/08 01:29:53;;;;;;;6.45;4.13;;;;;;;;;;5060649;28;20032;-59
2020/12/08 01:32:19;;;;;;;7.35;4.63;;;;;;;;;;5067304;28;20036;-58
2020/12/08 01:34:45;;;;;;;7.30;4.90;;;;;;;;;;5063874;28;20024;-59
2020/12/08 01:37:11;;;;;;;7.40;4.72;;;;;;;;;;5058413;28;20352;-60
2020/12/08 01:39:37;;;;;;;7.07;4.68;;;;;;;;;;5059141;28;20029;-60
2020/12/08 01:42:03;;;;;;;8.88;4.85;;;;;;;;;;5072296;28;20024;-60
2020/12/08 01:44:29;;;;;;;8.63;4.88;;;;;;;;;;5069357;28;20049;-59
2020/12/08 01:46:55;;;;;;;8.75;5.45;;;;;;;;;;5062999;28;20040;-60
2020/12/08 01:49:21;;;;;;;8.43;5.35;;;;;;;;;;5062241;28;20075;-58
2020/12/08 01:51:47;;;;;;;8.45;5.18;;;;;;;;;;5071719;28;20812;-60
2020/12/08 01:54:13;;;;;;;10.70;5.72;;;;;;;;;;5062115;28;20032;-60
2020/12/08 01:56:39;;;;;;;8.32;5.40;;;;;;;;;;5072661;28;20032;-59
2020/12/08 01:59:05;;;;;;;12.55;6.35;;;;;;;;;;5065838;28;20029;-60
2020/12/08 02:01:31;;;;;;;8.32;4.78;;;;;;;;;;5075713;28;20028;-59
2020/12/08 02:03:58;;;;;;;6.40;5.10;;;;;;;;;;5061835;28;20101;-60
2020/12/08 02:06:25;;;;;;;9.05;5.40;;;;;;;;;;5084373;28;20040;-60
2020/12/08 02:08:51;;;;;;;7.85;5.00;;;;;;;;;;5063118;28;20376;-60
2020/12/08 02:11:17;;;;;;;7.65;4.78;;;;;;;;;;5074568;28;20658;-60
2020/12/08 02:13:43;;;;;;;8.15;5.10;;;;;;;;;;5064786;28;20041;-59
2020/12/08 02:16:09;;;;;;;7.88;4.60;;;;;;;;;;5075584;28;20153;-60
2020/12/08 02:18:35;;;;;;;8.73;4.78;;;;;;;;;;5066179;28;20035;-60
2020/12/08 02:21:02;;;;;;;7.75;4.40;;;;;;;;;;5073659;28;20032;-58
2020/12/08 02:23:28;;;;;;;7.85;4.78;;;;;;;;;;5070403;28;20052;-60
2020/12/08 02:25:55;;;;;;;8.18;4.70;;;;;;;;;;5060269;28;20119;-59
2020/12/08 02:28:21;;;;;;;11.45;6.00;;;;;;;;;;5073273;28;20045;-59
2020/12/08 02:30:47;;;;;;;5.82;4.57;;;;;;;;;;5073534;28;20078;-59
2020/12/08 02:33:13;;;;;;;8.18;4.80;;;;;;;;;;5072588;28;20037;-60
2020/12/08 02:35:39;;;;;;;7.70;5.15;;;;;;;;;;5067958;28;20032;-62
2020/12/08 02:38:05;;;;;;;11.05;5.30;;;;;;;;;;5075917;28;20032;-59
2020/12/08 02:40:31;;;;;;;9.43;5.30;;;;;;;;;;5070196;28;20039;-59
2020/12/08 02:42:57;;;;;;;11.20;6.47;;;;;;;;;;5066642;28;20020;-59
2020/12/08 02:45:23;;;;;;;10.55;6.38;;;;;;;;;;5069037;28;20021;-60
2020/12/08 02:47:49;;;;;;;12.50;6.15;;;;;;;;;;5079790;28;20039;-59
2020/12/08 02:50:15;;;;;;;9.93;5.47;;;;;;;;;;5071027;28;20433;-60
2020/12/08 02:52:41;;;;;;;11.05;6.72;;;;;;;;;;5075231;28;20020;-59
2020/12/08 02:55:07;;;;;;;11.32;6.20;;;;;;;;;;5072932;28;20440;-60
2020/12/08 02:57:33;;;;;;;9.60;5.80;;;;;;;;;;5076419;28;20029;-59
2020/12/08 02:59:59;;;;;;;10.50;5.80;;;;;;;;;;5070737;28;20027;-59
2020/12/08 03:02:26;;;;;;;11.38;5.75;;;;;;;;;;5056513;28;20056;-59
2020/12/08 03:04:52;;;;;;;9.93;5.75;;;;;;;;;;5070242;28;20058;-59
2020/12/08 03:07:18;;;;;;;11.73;6.50;;;;;;;;;;5070407;28;20033;-59
2020/12/08 03:09:44;;;;;;;12.88;6.53;;;;;;;;;;5061930;28;20032;-59
2020/12/08 03:12:10;;;;;;;15.80;9.70;;;;;;;;;;5068169;28;20072;-59
2020/12/08 03:14:36;;;;;;;14.15;8.05;;;;;;;;;;5068375;28;20032;-58
2020/12/08 03:17:02;;;;;;;17.98;8.73;;;;;;;;;;5069249;28;20028;-60
2020/12/08 03:19:28;;;;;;;15.13;8.00;;;;;;;;;;5062387;28;20062;-58
2020/12/08 03:21:54;;;;;;;16.98;8.60;;;;;;;;;;5070362;28;20062;-60
2020/12/08 03:24:20;;;;;;;26.80;13.65;;;;;;;;;;5057956;28;20037;-59
2020/12/08 03:26:46;;;;;;;15.73;9.07;;;;;;;;;;5069074;28;20032;-60
2020/12/08 03:29:12;;;;;;;13.02;7.68;;;;;;;;;;5067208;28;20577;-58
2020/12/08 03:31:38;;;;;;;17.17;9.05;;;;;;;;;;5068477;28;20086;-59
2020/12/08 03:34:04;;;;;;;17.17;10.80;;;;;;;;;;5068734;28;20048;-59
2020/12/08 03:36:29;;;;;;;20.15;11.27;;;;;;;;;;5071934;28;20479;-58
2020/12/08 03:38:58;;;;;;;37.25;17.25;;;;;;;;;;5066752;28;20044;-58
2020/12/08 03:41:24;;;;;;;25.95;12.68;;;;;;;;;;5061975;28;20055;-60
2020/12/08 03:43:51;;;;;;;26.88;14.07;;;;;;;;;;5058775;28;20073;-59
2020/12/08 03:46:26;;;;;;;32.00;16.23;;;;;;;;;;5069149;28;20144;-59
2020/12/08 03:48:53;;;;;;;49.90;24.00;;;;;;;;;;5068596;28;20029;-60
2020/12/08 03:51:20;;;;;;;52.25;24.83;;;;;;;;;;5070740;28;20107;-59
2020/12/08 03:53:46;;;;;;;53.60;25.33;;;;;;;;;;5067332;28;20029;-60
2020/12/08 03:56:13;;;;;;;44.72;20.73;;;;;;;;;;5060027;28;20032;-60
2020/12/08 03:58:39;;;;;;;53.30;26.52;;;;;;;;;;5053002;28;20081;-60
2020/12/08 04:01:07;;;;;;;58.88;27.27;;;;;;;;;;5068263;28;20036;-60
2020/12/08 04:03:33;;;;;;;57.78;27.13;;;;;;;;;;5066943;28;20048;-59
2020/12/08 04:06:00;;;;;;;44.67;22.23;;;;;;;;;;5069523;28;20039;-60
2020/12/08 04:08:26;;;;;;;51.63;25.20;;;;;;;;;;5064398;28;20043;-60
2020/12/08 04:10:52;;;;;;;53.42;27.10;;;;;;;;;;5068825;28;20480;-60
2020/12/08 04:13:18;;;;;;;55.38;25.63;;;;;;;;;;5061966;28;20055;-60
2020/12/08 04:15:44;;;;;;;58.10;28.45;;;;;;;;;;5067540;28;20024;-60
2020/12/08 04:18:10;;;;;;;56.38;26.60;;;;;;;;;;5070506;28;20029;-60
2020/12/08 04:20:36;;;;;;;58.30;27.75;;;;;;;;;;5066510;28;20032;-60
2020/12/08 04:23:02;;;;;;;60.85;27.35;;;;;;;;;;5066880;28;20028;-59
2020/12/08 04:25:28;;;;;;;60.00;29.65;;;;;;;;;;5074542;28;20039;-59
2020/12/08 04:27:54;;;;;;;61.00;27.80;;;;;;;;;;5066796;28;20032;-60
2020/12/08 04:30:20;;;;;;;59.58;28.45;;;;;;;;;;5072435;28;20025;-60
2020/12/08 04:32:46;;;;;;;53.15;27.50;;;;;;;;;;5069808;28;20017;-60
2020/12/08 04:35:11;;;;;;;59.55;27.42;;;;;;;;;;5066018;28;20024;-60
2020/12/08 04:37:37;;;;;;;60.30;27.70;;;;;;;;;;5066083;28;20079;-60
2020/12/08 04:40:03;;;;;;;58.20;28.75;;;;;;;;;;5063512;28;20024;-60
2020/12/08 04:42:30;;;;;;;62.50;29.27;;;;;;;;;;5066469;28;20033;-59
2020/12/08 04:44:58;;;;;;;57.65;28.05;;;;;;;;;;5079035;28;20033;-60
2020/12/08 04:47:24;;;;;;;57.17;28.10;;;;;;;;;;5065430;28;20511;-60
2020/12/08 04:49:53;;;;;;;58.88;27.85;;;;;;;;;;5060907;28;20053;-60
2020/12/08 04:52:19;;;;;;;58.67;27.35;;;;;;;;;;5073799;28;20510;-60
2020/12/08 04:54:45;;;;;;;67.13;29.75;;;;;;;;;;5073518;28;20359;-60
2020/12/08 04:57:11;;;;;;;58.80;29.05;;;;;;;;;;5074457;28;20032;-59
2020/12/08 04:59:38;;;;;;;54.60;28.35;;;;;;;;;;5073383;28;20031;-60
2020/12/08 05:02:05;;;;;;;55.05;27.48;;;;;;;;;;5065907;28;20052;-59
2020/12/08 05:04:31;;;;;;;62.58;30.10;;;;;;;;;;5075115;28;20970;-60
2020/12/08 05:07:05;;;;;;;56.40;27.85;;;;;;;;;;5073043;28;20028;-60
2020/12/08 05:09:31;;;;;;;62.63;28.83;;;;;;;;;;5059226;28;20686;-59
2020/12/08 05:12:00;;;;;;;59.80;27.25;;;;;;;;;;5067399;28;20082;-60
2020/12/08 05:14:27;;;;;;;53.22;27.45;;;;;;;;;;5070478;28;20119;-60
2020/12/08 05:17:05;;;;;;;57.65;27.98;;;;;;;;;;5071469;28;20036;-60
2020/12/08 05:19:31;;;;;;;59.00;28.65;;;;;;;;;;5073992;28;20024;-60
2020/12/08 05:21:58;;;;;;;54.47;28.88;;;;;;;;;;5075117;28;20662;-60
2020/12/08 05:24:25;;;;;;;62.00;29.23;;;;;;;;;;5069207;28;20028;-60
2020/12/08 05:26:55;;;;;;;56.25;28.75;;;;;;;;;;5069352;28;20036;-60
2020/12/08 05:29:21;;;;;;;62.65;29.42;;;;;;;;;;5061635;28;20484;-60
2020/12/08 05:31:49;;;;;;;60.35;29.27;;;;;;;;;;5065913;28;20025;-60
2020/12/08 05:34:17;;;;;;;56.28;29.10;;;;;;;;;;5066413;28;20032;-60
2020/12/08 05:36:47;;;;;;;56.13;27.67;;;;;;;;;;5072181;28;20087;-60
2020/12/08 05:39:14;;;;;;;59.53;26.83;;;;;;;;;;5069267;28;20024;-60
2020/12/08 05:41:43;;;;;;;55.60;27.88;;;;;;;;;;5061817;28;20028;-60
2020/12/08 05:44:12;;;;;;;56.92;27.08;;;;;;;;;;5072066;28;20039;-60
2020/12/08 05:46:41;;;;;;;56.50;26.08;;;;;;;;;;5071230;28;20040;-60
2020/12/08 05:49:10;;;;;;;58.15;27.33;;;;;;;;;;5067008;28;20028;-59
2020/12/08 05:51:40;;;;;;;59.00;28.10;;;;;;;;;;5065951;28;20065;-60
2020/12/08 05:54:06;;;;;;;54.35;27.02;;;;;;;;;;5081676;28;20020;-60
2020/12/08 05:56:35;;;;;;;57.25;28.45;;;;;;;;;;5066382;28;20025;-59
2020/12/08 05:59:01;;;;;;;55.65;26.38;;;;;;;;;;5064573;28;20078;-59
2020/12/08 06:01:26;;;;;;;55.05;27.35;;;;;;;;;;5073660;28;20032;-60
2020/12/08 06:03:55;;;;;;;61.20;28.77;;;;;;;;;;5069829;28;20039;-60
2020/12/08 06:06:21;;;;;;;56.58;27.77;;;;;;;;;;5078771;28;20042;-60
2020/12/08 06:08:48;;;;;;;57.33;27.40;;;;;;;;;;5074235;28;20036;-60
2020/12/08 06:11:15;;;;;;;58.47;30.90;;;;;;;;;;5081711;28;20032;-60
2020/12/08 06:13:46;;;;;;;59.20;27.02;;;;;;;;;;5068521;28;20033;-60
2020/12/08 06:16:17;;;;;;;54.58;27.58;;;;;;;;;;5079002;28;20073;-62
2020/12/08 06:18:44;;;;;;;59.10;28.60;;;;;;;;;;5077060;28;20127;-60
2020/12/08 06:21:19;;;;;;;55.10;26.75;;;;;;;;;;5072567;28;20063;-60
2020/12/08 06:23:45;;;;;;;63.03;28.88;;;;;;;;;;5076696;28;20039;-60
2020/12/08 06:26:11;;;;;;;54.15;27.08;;;;;;;;;;5070711;28;20572;-58
2020/12/08 06:28:37;;;;;;;56.42;27.45;;;;;;;;;;5073528;28;20025;-60
2020/12/08 06:31:07;;;;;;;55.90;28.23;;;;;;;;;;5078023;28;20085;-60
2020/12/08 06:33:45;;;;;;;55.25;28.27;;;;;;;;;;5071579;28;20054;-60
2020/12/08 06:36:11;;;;;;;54.65;27.95;;;;;;;;;;5080481;28;20032;-60
2020/12/08 06:38:37;;;;;;;62.40;28.00;;;;;;;;;;5091921;28;20028;-60
2020/12/08 06:41:03;;;;;;;61.65;26.92;;;;;;;;;;5078958;28;20031;-60
2020/12/08 06:43:29;;;;;;;61.20;29.15;;;;;;;;;;5081100;28;20036;-60
2020/12/08 06:45:59;;;;;;;57.20;28.85;;;;;;;;;;5088192;28;20024;-59
2020/12/08 06:48:25;;;;;;;61.10;29.30;;;;;;;;;;5084877;28;20020;-60
2020/12/08 06:50:51;;;;;;;62.63;28.17;;;;;;;;;;5091429;28;20028;-60
2020/12/08 06:53:17;;;;;;;62.17;30.30;;;;;;;;;;5091499;28;20017;-60
2020/12/08 06:55:44;;;;;;;64.00;29.15;;;;;;;;;;5090380;28;20020;-60
2020/12/08 06:58:10;;;;;;;59.90;30.58;;;;;;;;;;5091292;28;20370;-59
2020/12/08 07:00:36;;;;;;;64.80;30.08;;;;;;;;;;5091212;28;20104;-60
2020/12/08 07:03:02;;;;;;;61.78;30.13;;;;;;;;;;5090937;28;20047;-60
2020/12/08 07:05:29;;;;;;;62.58;29.38;;;;;;;;;;5091402;28;20031;-60
2020/12/08 07:07:58;;;;;;;57.53;30.17;;;;;;;;;;5088499;28;20112;-60
2020/12/08 07:10:25;;;;;;;65.07;30.27;;;;;;;;;;5088231;28;20780;-60
2020/12/08 07:12:54;;;;;;;60.58;28.13;;;;;;;;;;5087657;28;20009;-60
2020/12/08 07:15:21;;;;;;;64.47;30.98;;;;;;;;;;5083804;28;20032;-60
2020/12/08 07:17:54;;;;;;;61.63;29.83;;;;;;;;;;5070759;28;20017;-60
2020/12/08 07:20:20;;;;;;;65.78;28.67;;;;;;;;;;5075157;28;20098;-59
2020/12/08 07:22:47;;;;;;;64.35;29.42;;;;;;;;;;5084654;28;20488;-60
2020/12/08 07:25:14;;;;;;;59.40;29.50;;;;;;;;;;5074393;28;20036;-60
2020/12/08 07:27:42;;;;;;;57.90;27.52;;;;;;;;;;5081574;28;20039;-60
2020/12/08 07:30:08;;;;;;;56.08;27.60;;;;;;;;;;5071948;28;20505;-59
2020/12/08 07:32:34;;;;;;;65.18;30.02;;;;;;;;;;5061318;28;20021;-60
2020/12/08 07:35:00;;;;;;;56.70;27.45;;;;;;;;;;5065423;28;20024;-59
2020/12/08 07:37:25;;;;;;;58.75;27.08;;;;;;;;;;5068479;28;20035;-59
2020/12/08 07:39:52;;;;;;;55.30;27.58;;;;;;;;;;5067472;28;20411;-59
2020/12/08 07:42:18;;;;;;;57.38;28.77;;;;;;;;;;5071242;28;20036;-60
2020/12/08 07:44:57;;;;;;;61.65;27.55;;;;;;;;;;5078185;28;20032;-58
2020/12/08 07:47:23;;;;;;;54.58;27.70;;;;;;;;;;5069292;28;20024;-60
2020/12/08 07:49:49;;;;;;;59.90;28.52;;;;;;;;;;5064602;28;20334;-59
2020/12/08 07:52:19;;;;;;;56.10;28.23;;;;;;;;;;5076329;28;20118;-59
2020/12/08 07:54:45;;;;;;;62.15;27.52;;;;;;;;;;5076247;28;20030;-59
2020/12/08 07:57:11;;;;;;;57.60;27.58;;;;;;;;;;5068949;28;20479;-59
2020/12/08 07:59:38;;;;;;;58.17;27.95;;;;;;;;;;5075260;28;20059;-60
2020/12/08 08:02:04;;;;;;;60.72;27.92;;;;;;;;;;5089890;28;20035;-59
2020/12/08 08:04:30;;;;;;;57.00;27.10;;;;;;;;;;5089205;28;20035;-60
2020/12/08 08:06:57;;;;;;;50.83;27.05;;;;;;;;;;5077800;28;20024;-59
2020/12/08 08:09:23;;;;;;;53.95;26.52;;;;;;;;;;5071795;28;20036;-60
2020/12/08 08:11:49;;;;;;;52.88;26.08;;;;;;;;;;5067806;28;20017;-60
2020/12/08 08:14:15;;;;;;;57.22;26.13;;;;;;;;;;5071393;28;20020;-60
2020/12/08 08:16:41;;;;;;;56.95;27.77;;;;;;;;;;5069022;28;20025;-59
2020/12/08 08:19:06;;;;;;;54.40;27.13;;;;;;;;;;5077848;28;20039;-57
2020/12/08 08:21:33;;;;;;;52.63;25.98;;;;;;;;;;5055224;28;20036;-60
2020/12/08 08:23:59;;;;;;;54.53;27.17;;;;;;;;;;5054499;28;20377;-60
2020/12/08 08:26:26;;;;;;;57.78;27.48;;;;;;;;;;5071441;28;20103;-58
2020/12/08 08:28:52;;;;;;;58.40;28.17;;;;;;;;;;5078287;28;20029;-60
2020/12/08 08:31:18;;;;;;;55.75;27.05;;;;;;;;;;5084450;28;20020;-58
2020/12/08 08:33:44;;;;;;;59.00;28.23;;;;;;;;;;5082684;28;20024;-59
2020/12/08 08:36:09;;;;;;;54.92;26.50;;;;;;;;;;5065857;28;20459;-62
2020/12/08 08:38:35;;;;;;;55.10;28.02;;;;;;;;;;5063055;28;20059;-61
2020/12/08 08:41:01;;;;;;;58.03;27.15;;;;;;;;;;5059060;28;20023;-60
2020/12/08 08:43:28;;;;;;;60.28;28.60;;;;;;;;;;5058328;28;20032;-58
2020/12/08 08:45:54;;;;;;;51.28;27.58;;;;;;;;;;5067744;28;20555;-60
2020/12/08 08:48:20;;;;;;;59.83;28.27;;;;;;;;;;5060301;28;20028;-60
2020/12/08 08:50:47;;;;;;;55.55;27.27;;;;;;;;;;5068591;28;20086;-59
2020/12/08 08:53:13;;;;;;;59.92;28.98;;;;;;;;;;5060584;28;20423;-60
2020/12/08 08:55:39;;;;;;;56.72;28.48;;;;;;;;;;5059142;28;20512;-60
2020/12/08 08:58:05;;;;;;;56.38;28.85;;;;;;;;;;5066031;28;20031;-59
2020/12/08 09:00:31;;;;;;;59.22;27.45;;;;;;;;;;5063082;28;20032;-60
2020/12/08 09:02:58;;;;;;;57.42;27.55;;;;;;;;;;5066108;28;20428;-60
2020/12/08 09:05:25;;;;;;;56.03;26.90;;;;;;;;;;5059954;28;20031;-59
2020/12/08 09:07:51;;;;;;;51.80;25.80;;;;;;;;;;5065860;28;20507;-59
2020/12/08 09:10:17;;;;;;;51.60;26.98;;;;;;;;;;5052345;28;20041;-59
2020/12/08 09:12:43;;;;;;;64.38;27.08;;;;;;;;;;5068261;28;20073;-60
2020/12/08 09:15:09;;;;;;;59.33;28.02;;;;;;;;;;5060992;28;20025;-59
2020/12/08 09:17:36;;;;;;;55.78;27.23;;;;;;;;;;5067301;28;20103;-60
2020/12/08 09:20:02;;;;;;;56.97;27.15;;;;;;;;;;5070820;28;20024;-59
2020/12/08 09:22:28;;;;;;;57.67;29.00;;;;;;;;;;5065654;28;20051;-60
2020/12/08 09:24:54;;;;;;;52.35;25.98;;;;;;;;;;5078182;28;20645;-60
2020/12/08 09:27:20;;;;;;;54.88;26.98;;;;;;;;;;5057389;28;20774;-59
2020/12/08 09:29:46;;;;;;;55.58;26.63;;;;;;;;;;5068956;28;20464;-60
2020/12/08 09:32:12;;;;;;;61.53;27.38;;;;;;;;;;5077514;28;20050;-60
2020/12/08 09:34:38;;;;;;;54.40;26.70;;;;;;;;;;5052712;28;20029;-58
2020/12/08 09:37:04;;;;;;;56.97;26.33;;;;;;;;;;5066499;28;20091;-60
2020/12/08 09:39:30;;;;;;;52.42;27.02;;;;;;;;;;5062688;28;20036;-57
2020/12/08 09:41:56;;;;;;;54.22;26.88;;;;;;;;;;5086765;28;20016;-60
2020/12/08 09:44:22;;;;;;;50.47;26.17;;;;;;;;;;5092467;28;20517;-60
2020/12/08 09:46:49;;;;;;;51.45;25.95;;;;;;;;;;5075861;28;20464;-59
2020/12/08 09:49:16;;;;;;;57.70;28.20;;;;;;;;;;5071945;28;20075;-59
2020/12/08 09:51:42;;;;;;;55.17;27.70;;;;;;;;;;5079025;28;20116;-60
2020/12/08 09:54:08;;;;;;;55.80;27.38;;;;;;;;;;5092481;28;20020;-58
2020/12/08 09:56:34;;;;;;;60.20;27.27;;;;;;;;;;5092368;28;20020;-59
2020/12/08 09:59:00;;;;;;;52.72;26.83;;;;;;;;;;5067797;28;20027;-60
2020/12/08 10:01:27;;;;;;;51.30;26.40;;;;;;;;;;5078072;28;20021;-59
2020/12/08 10:03:53;;;;;;;53.00;25.30;;;;;;;;;;5066725;28;20075;-58
2020/12/08 10:06:19;;;;;;;51.03;24.13;;;;;;;;;;5077861;28;20063;-60
2020/12/08 10:08:45;;;;;;;48.00;23.83;;;;;;;;;;5070905;28;20020;-59
2020/12/08 10:11:13;;;;;;;47.15;23.20;;;;;;;;;;5076109;28;20028;-59
2020/12/08 10:13:39;;;;;;;52.60;23.90;;;;;;;;;;5075111;28;20043;-59
2020/12/08 10:16:05;;;;;;;47.75;23.58;;;;;;;;;;5070286;28;20016;-59
2020/12/08 10:18:32;;;;;;;44.50;22.05;;;;;;;;;;5071384;28;20039;-59
2020/12/08 10:20:58;;;;;;;42.58;23.42;;;;;;;;;;5066012;28;20582;-60
2020/12/08 10:23:24;;;;;;;51.65;24.25;;;;;;;;;;5065537;28;20032;-59
2020/12/08 10:25:50;;;;;;;48.45;24.27;;;;;;;;;;5059659;28;20021;-59
2020/12/08 10:28:15;;;;;;;49.63;23.70;;;;;;;;;;5073605;28;20029;-59
2020/12/08 10:30:41;;;;;;;49.70;25.35;;;;;;;;;;5067602;28;20028;-59
2020/12/08 10:33:07;;;;;;;39.95;22.55;;;;;;;;;;5073763;28;20496;-60
2020/12/08 10:35:33;;;;;;;47.90;24.48;;;;;;;;;;5061807;28;20025;-60
2020/12/08 10:37:59;;;;;;;49.15;24.35;;;;;;;;;;5057577;28;20112;-59
2020/12/08 10:40:25;;;;;;;45.25;24.65;;;;;;;;;;5069834;28;20041;-59
2020/12/08 10:42:51;;;;;;;47.83;23.92;;;;;;;;;;5074555;28;20036;-58
2020/12/08 10:45:17;;;;;;;48.53;24.50;;;;;;;;;;5051458;28;20043;-59
2020/12/08 10:47:43;;;;;;;52.50;23.77;;;;;;;;;;5071205;28;20654;-59
2020/12/08 10:50:09;;;;;;;45.95;23.08;;;;;;;;;;5067400;28;20024;-59
2020/12/08 10:52:35;;;;;;;43.95;22.90;;;;;;;;;;5076192;28;20434;-59
2020/12/08 10:55:01;;;;;;;45.30;22.77;;;;;;;;;;5075423;28;20444;-60
2020/12/08 10:57:27;;;;;;;42.65;21.15;;;;;;;;;;5079722;28;20367;-59
2020/12/08 10:59:53;;;;;;;38.05;20.10;;;;;;;;;;5076327;28;20032;-60
2020/12/08 11:02:19;;;;;;;40.55;20.00;;;;;;;;;;5068897;28;20375;-61
2020/12/08 11:04:45;;;;;;;40.40;20.75;;;;;;;;;;5072072;28;20044;-60
2020/12/08 11:07:11;;;;;;;38.28;18.73;;;;;;;;;;5083674;28;20025;-60
2020/12/08 11:09:37;;;;;;;42.88;20.85;;;;;;;;;;5084516;28;20063;-60
2020/12/08 11:12:03;;;;;;;39.33;18.48;;;;;;;;;;5085601;28;20024;-60
2020/12/08 11:14:29;;;;;;;42.22;19.92;;;;;;;;;;5075980;28;20025;-60
2020/12/08 11:16:55;;;;;;;33.58;19.38;;;;;;;;;;5068660;28;20024;-61
2020/12/08 11:19:21;;;;;;;33.17;18.23;;;;;;;;;;5054192;28;20051;-61
2020/12/08 11:21:47;;;;;;;37.22;18.70;;;;;;;;;;5080556;28;20540;-61
2020/12/08 11:24:13;;;;;;;37.08;18.80;;;;;;;;;;5085841;28;20028;-61
2020/12/08 11:26:39;;;;;;;36.55;18.17;;;;;;;;;;5079148;28;20082;-61
2020/12/08 11:29:05;;;;;;;31.27;17.60;;;;;;;;;;5090489;28;20639;-61
2020/12/08 11:34:36;;;;;;;32.83;17.60;;;;;;;;;;5048824;28;20442;-61
2020/12/08 11:40:05;;;;;;;38.30;20.37;;;;;;;;;;5048039;28;20051;-60
2020/12/08 11:42:31;;;;;;;34.50;19.20;;;;;;;;;;5062767;28;20282;-60
2020/12/08 11:44:57;;;;;;;38.92;19.70;;;;;;;;;;5071825;28;20071;-60
2020/12/08 11:47:23;;;;;;;35.00;19.45;;;;;;;;;;5074645;28;20135;-60
2020/12/08 11:49:49;;;;;;;37.53;19.63;;;;;;;;;;5083228;28;20050;-59
2020/12/08 11:52:15;;;;;;;40.33;19.15;;;;;;;;;;5065421;28;20373;-61
2020/12/08 11:54:41;;;;;;;37.33;20.05;;;;;;;;;;5071676;28;20028;-61
2020/12/08 11:57:08;;;;;;;34.05;18.60;;;;;;;;;;5068565;28;20045;-60
2020/12/08 11:59:34;;;;;;;37.88;19.02;;;;;;;;;;5060068;28;20029;-61
2020/12/08 12:02:00;;;;;;;35.47;17.90;;;;;;;;;;5065069;28;20526;-60
2020/12/08 12:04:26;;;;;;;32.60;17.27;;;;;;;;;;5063870;28;20044;-61
2020/12/08 12:06:52;;;;;;;39.65;19.02;;;;;;;;;;5068172;28;20376;-61
2020/12/08 12:09:19;;;;;;;30.58;17.13;;;;;;;;;;5054041;28;20076;-61
2020/12/08 12:11:44;;;;;;;34.53;18.20;;;;;;;;;;5069338;28;20511;-62
2020/12/08 12:14:10;;;;;;;36.17;19.10;;;;;;;;;;5070456;28;20031;-62
2020/12/08 12:16:36;;;;;;;32.33;18.13;;;;;;;;;;5063217;28;20025;-62
2020/12/08 12:19:03;;;;;;;35.42;17.92;;;;;;;;;;5069944;28;20421;-62
2020/12/08 12:21:29;;;;;;;31.58;16.98;;;;;;;;;;5059167;28;20094;-62
2020/12/08 12:23:57;;;;;;;34.80;17.77;;;;;;;;;;5063971;28;20033;-62
2020/12/08 12:26:23;;;;;;;30.05;16.17;;;;;;;;;;5068517;28;20040;-62
2020/12/08 12:28:52;;;;;;;34.00;18.27;;;;;;;;;;5071416;28;20136;-62
2020/12/08 12:31:18;;;;;;;36.65;17.77;;;;;;;;;;5060729;28;20483;-65
2020/12/08 12:33:44;;;;;;;33.40;17.85;;;;;;;;;;5067861;28;20025;-61
2020/12/08 12:36:10;;;;;;;34.05;18.48;;;;;;;;;;5058952;28;20025;-62
2020/12/08 12:38:36;;;;;;;37.03;19.33;;;;;;;;;;5067353;28;20024;-62
2020/12/08 12:41:01;;;;;;;38.00;17.42;;;;;;;;;;5062098;28;20024;-62
2020/12/08 12:43:27;;;;;;;35.38;17.63;;;;;;;;;;5054620;28;20139;-62
2020/12/08 12:45:53;;;;;;;37.97;19.67;;;;;;;;;;5068857;28;20037;-62
2020/12/08 12:48:19;;;;;;;36.05;18.55;;;;;;;;;;5065124;28;20035;-62
2020/12/08 12:50:45;;;;;;;34.22;18.67;;;;;;;;;;5059594;28;20035;-62
2020/12/08 12:53:11;;;;;;;37.47;19.38;;;;;;;;;;5062723;28;20047;-62
2020/12/08 12:55:38;;;;;;;35.40;17.83;;;;;;;;;;5064109;28;20020;-62
2020/12/08 12:58:04;;;;;;;36.15;18.25;;;;;;;;;;5066296;28;20020;-62
2020/12/08 13:00:30;;;;;;;33.42;18.33;;;;;;;;;;5072914;28;20783;-60
2020/12/08 13:02:56;;;;;;;38.85;19.23;;;;;;;;;;5063572;28;20045;-62
2020/12/08 13:05:22;;;;;;;35.17;18.25;;;;;;;;;;5070309;28;20028;-61
2020/12/08 13:07:48;;;;;;;35.20;18.30;;;;;;;;;;5058716;28;20021;-61
2020/12/08 13:10:14;;;;;;;37.72;19.27;;;;;;;;;;5062298;28;20036;-61
2020/12/08 13:12:40;;;;;;;36.97;18.65;;;;;;;;;;5063897;28;20827;-61
2020/12/08 13:15:06;;;;;;;36.25;19.38;;;;;;;;;;5064395;28;20426;-61
2020/12/08 13:17:32;;;;;;;35.28;20.05;;;;;;;;;;5070598;28;20031;-60
2020/12/08 13:19:58;;;;;;;37.47;19.80;;;;;;;;;;5067913;28;20024;-61
2020/12/08 13:22:24;;;;;;;35.88;18.77;;;;;;;;;;5071936;28;20040;-60
2020/12/08 13:24:50;;;;;;;34.08;18.20;;;;;;;;;;5066670;28;20082;-61
2020/12/08 13:27:16;;;;;;;39.30;20.20;;;;;;;;;;5064700;28;20104;-60
2020/12/08 13:29:42;;;;;;;40.05;19.20;;;;;;;;;;5066464;28;20374;-60
2020/12/08 13:32:07;;;;;;;36.15;18.67;;;;;;;;;;5068806;28;20383;-61
2020/12/08 13:34:34;;;;;;;38.70;18.92;;;;;;;;;;5065499;28;20028;-59
2020/12/08 13:37:00;;;;;;;38.47;19.88;;;;;;;;;;5067688;28;20036;-60
2020/12/08 13:39:25;;;;;;;40.15;19.27;;;;;;;;;;5060485;28;20024;-60
2020/12/08 13:41:51;;;;;;;41.25;20.88;;;;;;;;;;5073887;28;20044;-60
2020/12/08 13:44:17;;;;;;;36.78;19.52;;;;;;;;;;5062282;28;20033;-60
2020/12/08 13:46:44;;;;;;;34.88;18.92;;;;;;;;;;5069275;28;20036;-60
2020/12/08 13:49:10;;;;;;;36.58;19.85;;;;;;;;;;5074240;28;20021;-61
2020/12/08 13:51:35;;;;;;;41.33;20.88;;;;;;;;;;5060653;28;20090;-61
2020/12/08 13:54:01;;;;;;;41.83;20.67;;;;;;;;;;5064035;28;20479;-61
2020/12/08 13:56:28;;;;;;;43.22;21.08;;;;;;;;;;5069897;28;20394;-60
2020/12/08 13:58:54;;;;;;;41.40;22.42;;;;;;;;;;5067390;28;20036;-61
2020/12/08 14:01:21;;;;;;;45.58;22.55;;;;;;;;;;5065308;28;20024;-61
2020/12/08 14:03:47;;;;;;;44.88;23.35;;;;;;;;;;5067076;28;20040;-61
2020/12/08 14:06:13;;;;;;;45.58;24.05;;;;;;;;;;5061162;28;20036;-60
2020/12/08 14:08:39;;;;;;;47.53;23.17;;;;;;;;;;5060194;28;20597;-61
2020/12/08 14:11:05;;;;;;;51.25;25.27;;;;;;;;;;5071592;28;20138;-61
2020/12/08 14:13:31;;;;;;;50.78;25.95;;;;;;;;;;5066070;28;20040;-60
2020/12/08 14:15:57;;;;;;;50.42;24.58;;;;;;;;;;5063268;28;20024;-61
2020/12/08 14:18:24;;;;;;;51.53;25.48;;;;;;;;;;5067639;28;20044;-61
2020/12/08 14:20:50;;;;;;;51.38;25.60;;;;;;;;;;5060687;28;20043;-61
2020/12/08 14:23:16;;;;;;;51.30;25.33;;;;;;;;;;5059003;28;20050;-60
2020/12/08 14:25:45;;;;;;;54.80;25.83;;;;;;;;;;5070909;28;20020;-61